createdAt,value
2024-05-09T00:01:17.643Z,10.57
2024-05-09T00:03:51.060Z,10.59
2024-05-09T00:06:21.700Z,10.49
2024-05-09T00:08:53.087Z,10.46
2024-05-09T00:11:26.370Z,10.36
2024-05-09T00:13:57.117Z,10.37
2024-05-09T00:16:27.452Z,10.34
2024-05-09T00:19:00.939Z,10.32
2024-05-09T00:21:32.694Z,10.26
2024-05-09T00:24:03.561Z,10.22
2024-05-09T00:26:37.766Z,10.21
2024-05-09T00:29:08.531Z,10.22
2024-05-09T00:31:39.053Z,10.23
2024-05-09T00:34:10.070Z,10.16
2024-05-09T00:36:40.989Z,10.10
2024-05-09T00:39:13.770Z,10.06
2024-05-09T00:41:46.646Z,9.98
2024-05-09T00:44:20.807Z,9.95
2024-05-09T00:46:55.773Z,9.90
2024-05-09T00:49:28.979Z,9.90
2024-05-09T00:52:00.504Z,9.86
2024-05-09T00:54:31.709Z,9.80
2024-05-09T00:57:06.280Z,9.72
2024-05-09T00:59:37.560Z,9.70
2024-05-09T01:02:12.207Z,9.68
2024-05-09T01:04:43.067Z,9.62
2024-05-09T01:07:18.725Z,9.55
2024-05-09T01:09:49.222Z,9.53
2024-05-09T01:12:24.027Z,9.48
2024-05-09T01:14:54.933Z,9.45
2024-05-09T01:17:25.551Z,9.40
2024-05-09T01:19:56.795Z,9.32
2024-05-09T01:22:30.653Z,9.23
2024-05-09T01:25:05.842Z,9.20
2024-05-09T01:27:37.676Z,9.18
2024-05-09T01:30:17.004Z,9.10
2024-05-09T01:32:53.493Z,9.12
2024-05-09T01:35:25.512Z,9.05
2024-05-09T01:37:56.764Z,9.00
2024-05-09T01:40:38.011Z,8.92
2024-05-09T01:43:11.987Z,8.84
2024-05-09T01:57:18.245Z,8.50
2024-05-09T01:59:49.946Z,8.52
2024-05-09T02:02:20.624Z,8.39
2024-05-09T02:04:51.399Z,8.37
2024-05-09T02:07:22.257Z,8.34
2024-05-09T02:09:54.630Z,8.23
2024-05-09T02:12:27.770Z,8.28
2024-05-09T02:14:58.480Z,8.18
2024-05-09T02:17:29.528Z,8.17
2024-05-09T02:20:01.126Z,8.11
2024-05-09T02:22:33.282Z,8.10
2024-05-09T02:25:04.181Z,8.02
2024-05-09T02:27:37.575Z,8.00
2024-05-09T02:30:18.790Z,8.01
2024-05-09T02:32:56.724Z,7.93
2024-05-09T02:35:27.598Z,7.95
2024-05-09T02:37:55.468Z,7.91
2024-05-09T02:40:33.244Z,7.91
2024-05-09T02:43:12.507Z,7.87
2024-05-09T02:45:40.877Z,7.86
2024-05-09T02:48:14.264Z,7.80
2024-05-09T02:50:44.251Z,7.81
2024-05-09T02:53:16.788Z,7.78
2024-05-09T02:55:47.270Z,7.73
2024-05-09T02:58:20.989Z,7.66
2024-05-09T03:00:49.091Z,7.65
2024-05-09T03:03:19.943Z,7.64
2024-05-09T03:05:48.305Z,7.64
2024-05-09T03:08:18.922Z,7.63
2024-05-09T03:10:46.961Z,7.62
2024-05-09T03:13:23.340Z,7.63
2024-05-09T03:15:53.288Z,7.65
2024-05-09T03:18:24.230Z,7.64
2024-05-09T03:20:52.591Z,7.60
2024-05-09T03:23:25.092Z,7.59
2024-05-09T03:25:54.374Z,7.56
2024-05-09T03:28:27.423Z,7.53
2024-05-09T03:30:56.580Z,7.44
2024-05-09T03:33:27.211Z,7.44
2024-05-09T03:35:55.310Z,7.50
2024-05-09T03:38:25.859Z,7.46
2024-05-09T03:40:58.446Z,7.68
2024-05-09T03:43:31.901Z,7.68
2024-05-09T03:46:02.224Z,7.66
2024-05-09T03:48:30.069Z,7.67
2024-05-09T03:51:00.515Z,7.63
2024-05-09T03:53:29.468Z,7.56
2024-05-09T03:56:00.258Z,7.59
2024-05-09T03:58:30.760Z,7.55
2024-05-09T04:01:01.779Z,7.57
2024-05-09T04:03:31.649Z,7.50
2024-05-09T04:06:02.917Z,7.44
2024-05-09T04:08:30.744Z,7.34
2024-05-09T04:11:02.203Z,7.02
2024-05-09T04:13:33.173Z,6.92
2024-05-09T04:16:06.718Z,7.27
2024-05-09T04:18:34.550Z,7.32
2024-05-09T04:21:09.601Z,7.39
2024-05-09T04:23:38.733Z,7.39
2024-05-09T04:26:11.039Z,7.51
2024-05-09T04:28:41.352Z,7.54
2024-05-09T04:31:12.257Z,7.55
2024-05-09T04:33:40.366Z,7.57
2024-05-09T04:36:13.758Z,7.57
2024-05-09T04:38:41.853Z,7.59
2024-05-09T04:41:12.837Z,7.67
2024-05-09T04:43:43.612Z,7.77
2024-05-09T04:46:14.611Z,8.07
2024-05-09T04:48:42.586Z,8.22
2024-05-09T04:51:14.298Z,8.45
2024-05-09T04:53:42.258Z,8.59
2024-05-09T04:56:16.005Z,8.51
2024-05-09T04:58:46.665Z,8.49
2024-05-09T05:01:18.516Z,8.49
2024-05-09T05:03:47.726Z,8.46
2024-05-09T05:06:18.562Z,8.50
2024-05-09T05:08:46.740Z,8.52
2024-05-09T05:11:18.986Z,8.57
2024-05-09T05:13:51.164Z,8.56
2024-05-09T05:16:21.545Z,8.50
2024-05-09T05:18:49.514Z,8.52
2024-05-09T05:21:21.506Z,8.52
2024-05-09T05:23:50.754Z,8.52
2024-05-09T05:26:22.834Z,8.58
2024-05-09T05:28:53.407Z,8.55
2024-05-09T05:31:26.408Z,8.64
2024-05-09T05:33:54.258Z,8.70
2024-05-09T05:36:25.628Z,8.76
2024-05-09T05:38:53.382Z,8.68
2024-05-09T05:41:24.021Z,8.53
2024-05-09T05:43:56.162Z,8.73
2024-05-09T05:46:29.690Z,8.64
2024-05-09T05:48:57.709Z,8.64
2024-05-09T05:51:28.095Z,8.69
2024-05-09T05:53:55.967Z,9.05
2024-05-09T05:56:27.889Z,9.12
2024-05-09T05:58:59.666Z,9.31
2024-05-09T06:01:30.055Z,9.38
2024-05-09T06:03:57.959Z,9.51
2024-05-09T06:06:28.279Z,9.56
2024-05-09T06:08:56.499Z,9.57
2024-05-09T06:11:27.244Z,9.70
2024-05-09T06:13:55.075Z,9.85
2024-05-09T06:16:28.446Z,10.10
2024-05-09T06:18:56.332Z,10.14
2024-05-09T06:21:27.402Z,10.15
2024-05-09T06:23:56.704Z,10.33
2024-05-09T06:26:27.849Z,10.39
2024-05-09T06:28:55.626Z,10.51
2024-05-09T06:31:28.808Z,10.59
2024-05-09T06:33:57.012Z,10.70
2024-05-09T06:36:27.364Z,10.76
2024-05-09T06:38:55.417Z,10.88
2024-05-09T06:41:26.829Z,11.09
2024-05-09T06:43:54.570Z,11.04
2024-05-09T06:46:26.963Z,10.96
2024-05-09T06:48:57.501Z,11.27
2024-05-09T06:51:31.164Z,11.41
2024-05-09T06:54:00.418Z,11.57
2024-05-09T06:56:30.882Z,11.31
2024-05-09T06:58:58.646Z,11.39
2024-05-09T07:01:30.358Z,11.64
2024-05-09T07:04:01.267Z,11.69
2024-05-09T07:06:34.567Z,11.79
2024-05-09T07:09:04.169Z,11.97
2024-05-09T07:11:35.732Z,12.25
2024-05-09T07:14:06.493Z,12.45
2024-05-09T07:16:39.775Z,12.49
2024-05-09T07:19:10.264Z,12.52
2024-05-09T07:21:41.239Z,12.63
2024-05-09T07:24:09.336Z,12.79
2024-05-09T07:26:40.796Z,12.79
2024-05-09T07:29:09.735Z,12.88
2024-05-09T07:31:40.477Z,12.92
2024-05-09T07:34:13.501Z,13.08
2024-05-09T07:36:45.131Z,13.25
2024-05-09T07:39:13.259Z,13.38
2024-05-09T07:41:45.034Z,13.34
2024-05-09T07:44:13.692Z,13.44
2024-05-09T07:47:48.545Z,13.60
2024-05-09T07:53:29.893Z,13.50
2024-05-09T07:55:06.681Z,13.65
2024-05-09T07:57:39.279Z,13.85
2024-05-09T08:00:11.844Z,13.95
2024-05-09T08:02:47.824Z,14.06
2024-05-09T08:05:19.221Z,14.21
2024-05-09T08:07:50.132Z,14.45
2024-05-09T08:10:21.963Z,14.48
2024-05-09T08:12:55.954Z,14.52
2024-05-09T08:15:23.957Z,14.73
2024-05-09T08:17:55.362Z,14.81
2024-05-09T08:20:31.124Z,14.88
2024-05-09T08:23:12.320Z,15.13
2024-05-09T08:25:42.185Z,15.29
2024-05-09T08:28:15.282Z,15.19
2024-05-09T08:30:45.761Z,15.32
2024-05-09T08:33:19.758Z,15.34
2024-05-09T08:35:54.674Z,15.55
2024-05-09T08:38:26.280Z,15.77
2024-05-09T08:40:57.904Z,16.05
2024-05-09T08:43:31.177Z,16.10
2024-05-09T08:45:59.897Z,15.93
2024-05-09T08:48:30.978Z,15.83
2024-05-09T08:51:02.723Z,16.30
2024-05-09T08:53:43.604Z,16.64
2024-05-09T08:56:12.441Z,16.46
2024-05-09T08:58:44.608Z,16.73
2024-05-09T09:01:14.790Z,16.46
2024-05-09T09:03:48.921Z,17.04
2024-05-09T09:06:22.854Z,17.36
2024-05-09T09:08:55.917Z,17.16
2024-05-09T09:11:25.051Z,17.28
2024-05-09T09:13:55.609Z,17.52
2024-05-09T09:16:34.345Z,17.46
2024-05-09T09:19:07.639Z,17.62
2024-05-09T09:21:42.667Z,17.73
2024-05-09T09:24:11.365Z,17.69
2024-05-09T09:26:42.051Z,17.89
2024-05-09T09:29:10.063Z,18.79
2024-05-09T09:31:42.171Z,20.06
2024-05-09T09:34:10.376Z,20.16
2024-05-09T09:36:45.767Z,19.34
2024-05-09T09:39:18.690Z,19.88
2024-05-09T09:41:52.978Z,20.35
2024-05-09T09:44:22.610Z,21.68
2024-05-09T09:46:57.056Z,21.38
2024-05-09T09:49:24.989Z,21.93
2024-05-09T09:51:58.937Z,21.82
2024-05-09T09:54:29.357Z,21.08
2024-05-09T09:57:01.918Z,21.65
2024-05-09T09:59:35.601Z,21.07
2024-05-09T10:02:09.582Z,22.27
2024-05-09T10:04:38.120Z,21.60
2024-05-09T10:07:27.664Z,22.60
2024-05-09T10:09:56.546Z,22.63
2024-05-09T10:12:27.664Z,22.49
2024-05-09T10:15:13.616Z,21.86
2024-05-09T10:17:52.587Z,21.98
2024-05-09T10:20:28.160Z,23.29
2024-05-09T10:23:05.500Z,23.05
2024-05-09T10:25:34.189Z,23.00
2024-05-09T10:28:05.077Z,23.11
2024-05-09T10:30:36.204Z,22.83
2024-05-09T10:33:12.560Z,23.20
2024-05-09T10:35:51.752Z,22.63
2024-05-09T10:38:26.790Z,23.09
2024-05-09T10:40:57.177Z,22.78
2024-05-09T10:43:29.447Z,23.54
2024-05-09T10:45:57.723Z,21.79
2024-05-09T10:48:29.446Z,22.04
2024-05-09T10:50:59.941Z,21.51
2024-05-09T10:53:33.523Z,22.97
2024-05-09T10:56:02.545Z,23.67
2024-05-09T10:58:33.426Z,23.95
2024-05-09T11:01:05.452Z,23.88
2024-05-09T11:03:37.887Z,23.87
2024-05-09T11:06:07.054Z,21.80
2024-05-09T11:08:41.637Z,21.09
2024-05-09T11:11:10.620Z,21.93
2024-05-09T11:13:45.136Z,23.05
2024-05-09T11:16:20.864Z,23.94
2024-05-09T11:19:00.830Z,23.94
2024-05-09T11:21:30.227Z,24.08
2024-05-09T11:24:05.968Z,24.27
2024-05-09T11:26:34.513Z,24.17
2024-05-09T11:29:06.770Z,23.82
2024-05-09T11:31:45.507Z,24.33
2024-05-09T11:34:18.020Z,24.44
2024-05-09T11:36:45.975Z,24.23
2024-05-09T11:39:20.232Z,24.35
2024-05-09T11:41:47.957Z,25.11
2024-05-09T11:44:19.063Z,24.60
2024-05-09T11:46:48.645Z,24.51
2024-05-09T11:49:23.149Z,24.13
2024-05-09T11:51:52.933Z,24.73
2024-05-09T11:54:25.933Z,23.50
2024-05-09T11:56:54.370Z,24.60
2024-05-09T11:59:24.928Z,24.99
2024-05-09T12:01:54.642Z,24.54
2024-05-09T12:04:29.066Z,23.86
2024-05-09T12:06:57.594Z,24.01
2024-05-09T12:09:34.674Z,24.07
2024-05-09T12:12:03.969Z,25.00
2024-05-09T12:14:37.251Z,25.39
2024-05-09T12:17:05.777Z,25.08
2024-05-09T12:19:36.734Z,26.01
2024-05-09T12:22:06.727Z,25.43
2024-05-09T12:24:40.031Z,24.20
2024-05-09T12:27:10.663Z,24.11
2024-05-09T12:29:41.591Z,24.77
2024-05-09T12:32:11.651Z,25.26
2024-05-09T12:34:42.136Z,24.99
2024-05-09T12:37:11.446Z,25.70
2024-05-09T12:39:44.740Z,24.98
2024-05-09T12:42:25.875Z,24.48
2024-05-09T12:44:58.526Z,25.86
2024-05-09T12:47:26.568Z,23.18
2024-05-09T12:49:57.595Z,23.12
2024-05-09T12:52:27.680Z,24.11
2024-05-09T12:55:03.827Z,25.23
2024-05-09T12:57:31.847Z,25.50
2024-05-09T13:00:04.041Z,25.75
2024-05-09T13:02:32.913Z,26.15
2024-05-09T13:05:05.946Z,26.10
2024-05-09T13:07:33.777Z,25.81
2024-05-09T13:10:19.758Z,25.26
2024-05-09T13:12:51.274Z,24.66
2024-05-09T13:15:22.208Z,25.03
2024-05-09T13:17:50.552Z,25.67
2024-05-09T13:20:29.202Z,24.71
2024-05-09T13:23:03.051Z,25.19
2024-05-09T13:25:37.991Z,24.01
2024-05-09T13:28:07.916Z,25.50
2024-05-09T13:30:41.608Z,25.53
2024-05-09T13:33:12.168Z,26.02
2024-05-09T13:35:47.636Z,26.63
2024-05-09T13:38:21.883Z,26.21
2024-05-09T13:40:56.398Z,25.59
2024-05-09T13:43:25.614Z,25.46
2024-05-09T13:45:58.014Z,25.21
2024-05-09T13:48:27.113Z,25.52
2024-05-09T13:51:01.716Z,25.64
2024-05-09T13:53:29.588Z,26.62
2024-05-09T13:56:03.667Z,25.81
2024-05-09T13:58:31.770Z,25.64
2024-05-09T14:01:03.552Z,25.54
2024-05-09T14:03:31.411Z,25.73
2024-05-09T14:06:02.985Z,25.62
2024-05-09T14:08:33.634Z,25.91
2024-05-09T14:11:07.651Z,26.08
2024-05-09T14:13:35.872Z,25.95
2024-05-09T14:16:06.553Z,25.82
2024-05-09T14:18:35.018Z,26.31
2024-05-09T14:21:05.947Z,26.77
2024-05-09T14:23:34.329Z,26.08
2024-05-09T14:26:07.969Z,25.60
2024-05-09T14:28:35.827Z,25.46
2024-05-09T14:31:06.423Z,25.93
2024-05-09T14:33:34.755Z,26.25
2024-05-09T14:36:05.417Z,26.27
2024-05-09T14:38:34.803Z,26.05
2024-05-09T14:41:09.418Z,26.59
2024-05-09T14:43:37.769Z,25.78
2024-05-09T14:46:08.583Z,26.40
2024-05-09T14:48:36.362Z,26.40
2024-05-09T14:51:08.549Z,26.43
2024-05-09T14:53:37.023Z,26.37
2024-05-09T14:56:11.689Z,26.45
2024-05-09T14:58:39.932Z,26.38
2024-05-09T15:01:11.159Z,26.60
2024-05-09T15:03:39.551Z,26.36
2024-05-09T15:06:10.125Z,26.34
2024-05-09T15:08:38.462Z,26.69
2024-05-09T15:11:14.480Z,26.85
2024-05-09T15:13:42.582Z,25.51
2024-05-09T15:16:14.366Z,23.61
2024-05-09T15:18:44.079Z,23.24
2024-05-09T15:21:16.035Z,22.84
2024-05-09T15:23:43.690Z,23.02
2024-05-09T15:26:16.954Z,22.36
2024-05-09T15:28:44.743Z,23.04
2024-05-09T15:31:15.184Z,23.94
2024-05-09T15:33:43.473Z,24.67
2024-05-09T15:36:14.239Z,25.45
2024-05-09T15:38:42.110Z,24.61
2024-05-09T15:41:12.465Z,24.41
2024-05-09T15:43:43.994Z,25.24
2024-05-09T15:46:15.043Z,25.18
2024-05-09T15:48:44.834Z,24.68
2024-05-09T15:51:15.963Z,23.88
2024-05-09T15:53:45.045Z,23.45
2024-05-09T15:56:15.356Z,23.25
2024-05-09T15:58:46.136Z,24.42
2024-05-09T16:01:16.828Z,24.15
2024-05-09T16:03:45.404Z,24.01
2024-05-09T16:06:16.552Z,23.56
2024-05-09T16:08:44.212Z,22.36
2024-05-09T16:11:17.194Z,22.98
2024-05-09T16:13:47.788Z,23.85
2024-05-09T16:16:18.554Z,24.44
2024-05-09T16:18:46.508Z,24.54
2024-05-09T16:21:17.190Z,23.46
2024-05-09T16:23:45.398Z,23.50
2024-05-09T16:26:16.965Z,23.59
2024-05-09T16:28:48.184Z,23.95
2024-05-09T16:31:18.794Z,23.96
2024-05-09T16:33:47.331Z,24.05
2024-05-09T16:36:19.116Z,23.65
2024-05-09T16:38:47.038Z,23.82
2024-05-09T16:41:17.420Z,23.69
2024-05-09T16:43:48.154Z,23.52
2024-05-09T16:46:19.166Z,23.50
2024-05-09T16:48:47.296Z,23.66
2024-05-09T16:51:18.495Z,23.77
2024-05-09T16:53:46.643Z,24.04
2024-05-09T16:56:17.698Z,23.87
2024-05-09T16:58:48.102Z,23.47
2024-05-09T17:01:18.859Z,23.69
2024-05-09T17:03:47.334Z,23.60
2024-05-09T17:06:17.897Z,23.24
2024-05-09T17:08:48.491Z,23.15
2024-05-09T17:11:17.297Z,22.98
2024-05-09T17:13:51.528Z,23.25
2024-05-09T17:16:22.336Z,22.76
2024-05-09T17:18:51.545Z,22.85
2024-05-09T17:21:22.053Z,22.76
2024-05-09T17:23:54.188Z,22.60
2024-05-09T17:26:24.870Z,22.29
2024-05-09T17:28:55.828Z,21.91
2024-05-09T17:31:27.448Z,21.18
2024-05-09T17:33:55.838Z,20.97
2024-05-09T17:36:26.363Z,20.82
2024-05-09T17:38:54.925Z,20.69
2024-05-09T17:41:25.601Z,20.51
2024-05-09T17:43:55.929Z,20.34
2024-05-09T17:46:27.219Z,20.15
2024-05-09T17:49:01.050Z,20.18
2024-05-09T17:51:35.679Z,20.05
2024-05-09T17:54:03.588Z,19.93
2024-05-09T17:56:34.044Z,19.88
2024-05-09T17:59:05.913Z,19.71
2024-05-09T18:01:37.770Z,19.69
2024-05-09T18:04:05.926Z,19.69
2024-05-09T18:06:39.707Z,19.68
2024-05-09T18:09:08.258Z,19.54
2024-05-09T18:11:40.544Z,19.39
2024-05-09T18:14:10.994Z,19.29
2024-05-09T18:16:42.750Z,19.33
2024-05-09T18:19:10.650Z,19.25
2024-05-09T18:21:41.653Z,19.21
2024-05-09T18:24:10.222Z,19.14
2024-05-09T18:26:41.255Z,19.09
2024-05-09T18:29:12.908Z,18.97
2024-05-09T18:31:43.253Z,18.97
2024-05-09T18:34:13.296Z,18.87
2024-05-09T18:36:45.475Z,18.80
2024-05-09T18:39:13.599Z,18.79
2024-05-09T18:41:44.067Z,18.85
2024-05-09T18:44:14.875Z,18.79
2024-05-09T18:46:49.041Z,18.64
2024-05-09T18:49:17.698Z,18.54
2024-05-09T18:51:48.488Z,18.47
2024-05-09T18:54:16.864Z,18.46
2024-05-09T18:56:47.578Z,18.35
2024-05-09T18:59:18.344Z,18.29
2024-05-09T19:01:50.807Z,18.24
2024-05-09T19:04:19.255Z,18.25
2024-05-09T19:06:50.259Z,18.20
2024-05-09T19:09:19.152Z,18.14
2024-05-09T19:11:50.262Z,18.03
2024-05-09T19:14:20.930Z,17.98
2024-05-09T19:16:51.352Z,17.97
2024-05-09T19:19:20.000Z,17.88
2024-05-09T19:21:50.430Z,17.75
2024-05-09T19:24:18.476Z,17.75
2024-05-09T19:26:49.332Z,17.65
2024-05-09T19:29:18.059Z,17.62
2024-05-09T19:31:51.815Z,17.68
2024-05-09T19:34:20.074Z,17.58
2024-05-09T19:36:51.381Z,17.44
2024-05-09T19:39:19.642Z,17.41
2024-05-09T19:41:51.968Z,17.38
2024-05-09T19:44:19.785Z,17.31
2024-05-09T19:46:52.784Z,17.31
2024-05-09T19:49:20.902Z,17.17
2024-05-09T19:51:54.301Z,17.12
2024-05-09T19:54:22.428Z,17.09
2024-05-09T19:56:53.966Z,17.00
2024-05-09T19:59:21.670Z,16.95
2024-05-09T20:01:54.875Z,16.83
2024-05-09T20:04:22.980Z,16.78
2024-05-09T20:06:53.593Z,16.67
2024-05-09T20:09:21.827Z,16.60
2024-05-09T20:11:52.224Z,16.37
2024-05-09T20:14:20.535Z,16.25
2024-05-09T20:16:51.624Z,16.23
2024-05-09T20:19:22.869Z,16.06
2024-05-09T20:21:53.386Z,15.97
2024-05-09T20:24:21.175Z,15.97
2024-05-09T20:26:51.808Z,15.87
2024-05-09T20:29:20.960Z,15.85
2024-05-09T20:31:51.823Z,15.81
2024-05-09T20:34:22.844Z,15.75
2024-05-09T20:36:53.521Z,15.73
2024-05-09T20:39:25.620Z,15.64
2024-05-09T20:41:56.255Z,15.61
2024-05-09T20:44:25.341Z,15.55
2024-05-09T20:46:56.852Z,15.49
2024-05-09T20:49:27.714Z,15.48
2024-05-09T20:51:58.202Z,15.49
2024-05-09T20:54:28.475Z,15.39
2024-05-09T20:56:59.004Z,15.29
2024-05-09T20:59:27.277Z,15.40
2024-05-09T21:01:57.649Z,15.40
2024-05-09T21:04:28.529Z,15.33
2024-05-09T21:07:00.710Z,15.21
2024-05-09T21:09:28.791Z,15.13
2024-05-09T21:11:59.784Z,15.08
2024-05-09T21:14:27.836Z,15.10
2024-05-09T21:16:58.733Z,15.11
2024-05-09T21:19:32.730Z,15.09
2024-05-09T21:22:03.435Z,14.99
2024-05-09T21:24:31.432Z,14.97
2024-05-09T21:27:03.543Z,14.93
2024-05-09T21:29:31.256Z,14.91
2024-05-09T21:32:01.549Z,14.83
2024-05-09T21:34:35.033Z,14.73
2024-05-09T21:37:06.547Z,14.64
2024-05-09T21:39:35.786Z,14.53
2024-05-09T21:42:09.204Z,14.42
2024-05-09T21:44:37.022Z,14.32
2024-05-09T21:47:10.077Z,14.24
2024-05-09T21:49:41.540Z,14.23
2024-05-09T21:52:11.919Z,14.09
2024-05-09T21:54:42.637Z,14.06
2024-05-09T21:57:14.496Z,13.99
2024-05-09T21:59:43.342Z,14.04
2024-05-09T22:02:16.059Z,14.00
2024-05-09T22:04:46.847Z,14.08
2024-05-09T22:07:18.914Z,14.11
2024-05-09T22:09:47.954Z,14.13
2024-05-09T22:12:18.374Z,14.06
2024-05-09T22:14:47.098Z,14.00
2024-05-09T22:17:17.559Z,14.04
2024-05-09T22:19:49.957Z,13.89
2024-05-09T22:22:20.812Z,13.68
2024-05-09T22:24:50.250Z,13.57
2024-05-09T22:27:23.027Z,13.46
2024-05-09T22:29:52.277Z,13.36
2024-05-09T22:32:22.978Z,13.33
2024-05-09T22:34:53.659Z,13.28
2024-05-09T22:37:26.477Z,13.26
2024-05-09T22:39:54.433Z,13.25
2024-05-09T22:42:24.879Z,13.35
2024-05-09T22:44:52.508Z,13.35
2024-05-09T22:47:22.908Z,13.16
2024-05-09T22:49:53.402Z,13.08
2024-05-09T22:52:23.715Z,12.97
2024-05-09T22:54:51.455Z,12.83
2024-05-09T22:57:22.667Z,12.78
2024-05-09T22:59:51.600Z,12.75
2024-05-09T23:02:22.111Z,12.71
2024-05-09T23:04:50.136Z,12.67
2024-05-09T23:07:24.179Z,12.67
2024-05-09T23:09:51.993Z,12.61
2024-05-09T23:12:22.440Z,12.57
2024-05-09T23:14:51.931Z,12.55
2024-05-09T23:17:22.412Z,12.55
2024-05-09T23:19:50.226Z,12.54
2024-05-09T23:22:24.309Z,12.51
2024-05-09T23:24:52.432Z,12.51
2024-05-09T23:27:22.908Z,12.44
2024-05-09T23:29:50.715Z,12.41
2024-05-09T23:32:21.075Z,12.46
2024-05-09T23:34:49.317Z,12.38
2024-05-09T23:37:20.230Z,12.29
2024-05-09T23:39:50.807Z,12.23
2024-05-09T23:42:22.242Z,12.18
2024-05-09T23:44:53.372Z,12.07
2024-05-09T23:47:24.894Z,12.04
2024-05-09T23:49:54.120Z,12.05
2024-05-09T23:52:24.847Z,12.05
2024-05-09T23:54:55.399Z,12.03
2024-05-09T23:57:28.474Z,12.03
2024-05-09T23:59:57.213Z,12.00
